sensor_id;sensor_type;location;lat;lon;timestamp;P1;durP1;ratioP1;P2;durP2;ratioP2
19804;SDS011;10062;51.052;13.756;2023-05-07T00:01:12;18.10;;;11.03;;
19804;SDS011;10062;51.052;13.756;2023-05-07T00:03:44;19.20;;;12.03;;
19804;SDS011;10062;51.052;13.756;2023-05-07T00:06:17;20.60;;;12.03;;
19804;SDS011;10062;51.052;13.756;2023-05-07T00:08:49;17.90;;;11.63;;
19804;SDS011;10062;51.052;13.756;2023-05-07T00:11:21;21.53;;;11.87;;
19804;SDS011;10062;51.052;13.756;2023-05-07T00:13:53;20.47;;;12.53;;
19804;SDS011;10062;51.052;13.756;2023-05-07T00:16:25;22.80;;;13.03;;
19804;SDS011;10062;51.052;13.756;2023-05-07T00:18:56;25.73;;;13.93;;
19804;SDS011;10062;51.052;13.756;2023-05-07T00:21:29;21.60;;;12.53;;
19804;SDS011;10062;51.052;13.756;2023-05-07T00:24:01;20.77;;;13.27;;
19804;SDS011;10062;51.052;13.756;2023-05-07T00:26:33;22.40;;;12.80;;
19804;SDS011;10062;51.052;13.756;2023-05-07T00:29:05;20.90;;;12.60;;
19804;SDS011;10062;51.052;13.756;2023-05-07T00:31:36;25.73;;;13.70;;
19804;SDS011;10062;51.052;13.756;2023-05-07T00:34:08;23.63;;;13.90;;
19804;SDS011;10062;51.052;13.756;2023-05-07T00:36:41;25.87;;;15.03;;
19804;SDS011;10062;51.052;13.756;2023-05-07T00:39:13;28.13;;;15.07;;
19804;SDS011;10062;51.052;13.756;2023-05-07T00:41:44;22.37;;;13.37;;
19804;SDS011;10062;51.052;13.756;2023-05-07T00:44:17;22.53;;;14.17;;
19804;SDS011;10062;51.052;13.756;2023-05-07T00:46:49;21.87;;;13.80;;
19804;SDS011;10062;51.052;13.756;2023-05-07T00:49:20;23.47;;;14.23;;
19804;SDS011;10062;51.052;13.756;2023-05-07T00:51:53;24.40;;;14.23;;
19804;SDS011;10062;51.052;13.756;2023-05-07T00:54:25;25.00;;;13.77;;
19804;SDS011;10062;51.052;13.756;2023-05-07T00:56:57;25.67;;;15.83;;
19804;SDS011;10062;51.052;13.756;2023-05-07T00:59:28;24.10;;;14.73;;
19804;SDS011;10062;51.052;13.756;2023-05-07T01:02:01;22.70;;;13.90;;
19804;SDS011;10062;51.052;13.756;2023-05-07T01:04:32;22.77;;;14.50;;
19804;SDS011;10062;51.052;13.756;2023-05-07T01:07:05;25.83;;;14.63;;
19804;SDS011;10062;51.052;13.756;2023-05-07T01:09:37;23.30;;;13.23;;
19804;SDS011;10062;51.052;13.756;2023-05-07T01:12:09;24.20;;;15.03;;
19804;SDS011;10062;51.052;13.756;2023-05-07T01:14:41;21.93;;;13.17;;
19804;SDS011;10062;51.052;13.756;2023-05-07T01:17:13;25.53;;;14.53;;
19804;SDS011;10062;51.052;13.756;2023-05-07T01:19:45;21.67;;;13.80;;
19804;SDS011;10062;51.052;13.756;2023-05-07T01:22:24;20.57;;;13.57;;
19804;SDS011;10062;51.052;13.756;2023-05-07T01:25:02;22.33;;;12.97;;
19804;SDS011;10062;51.052;13.756;2023-05-07T01:27:36;23.90;;;14.27;;
19804;SDS011;10062;51.052;13.756;2023-05-07T01:30:08;23.03;;;14.30;;
19804;SDS011;10062;51.052;13.756;2023-05-07T01:32:42;22.60;;;14.40;;
19804;SDS011;10062;51.052;13.756;2023-05-07T01:35:18;19.53;;;12.40;;
19804;SDS011;10062;51.052;13.756;2023-05-07T01:37:53;20.07;;;12.40;;
19804;SDS011;10062;51.052;13.756;2023-05-07T01:40:26;19.67;;;12.20;;
19804;SDS011;10062;51.052;13.756;2023-05-07T01:42:58;22.10;;;12.73;;
19804;SDS011;10062;51.052;13.756;2023-05-07T01:45:30;20.97;;;12.70;;
19804;SDS011;10062;51.052;13.756;2023-05-07T01:48:03;19.50;;;12.60;;
19804;SDS011;10062;51.052;13.756;2023-05-07T01:50:36;21.60;;;13.20;;
19804;SDS011;10062;51.052;13.756;2023-05-07T01:53:10;18.30;;;12.60;;
19804;SDS011;10062;51.052;13.756;2023-05-07T01:55:42;21.50;;;13.23;;
19804;SDS011;10062;51.052;13.756;2023-05-07T01:58:13;18.60;;;12.47;;
19804;SDS011;10062;51.052;13.756;2023-05-07T02:00:45;19.00;;;12.40;;
19804;SDS011;10062;51.052;13.756;2023-05-07T02:03:17;19.37;;;12.33;;
19804;SDS011;10062;51.052;13.756;2023-05-07T02:05:57;25.87;;;12.83;;
19804;SDS011;10062;51.052;13.756;2023-05-07T02:08:37;18.40;;;11.43;;
19804;SDS011;10062;51.052;13.756;2023-05-07T02:11:09;18.63;;;11.43;;
19804;SDS011;10062;51.052;13.756;2023-05-07T02:13:41;19.77;;;12.13;;
19804;SDS011;10062;51.052;13.756;2023-05-07T02:16:12;20.10;;;13.33;;
19804;SDS011;10062;51.052;13.756;2023-05-07T02:18:44;17.90;;;11.57;;
19804;SDS011;10062;51.052;13.756;2023-05-07T02:21:16;19.33;;;11.70;;
19804;SDS011;10062;51.052;13.756;2023-05-07T02:23:49;16.07;;;11.17;;
19804;SDS011;10062;51.052;13.756;2023-05-07T02:26:21;17.13;;;11.90;;
19804;SDS011;10062;51.052;13.756;2023-05-07T02:28:52;18.40;;;12.53;;
19804;SDS011;10062;51.052;13.756;2023-05-07T02:31:24;22.37;;;12.33;;
19804;SDS011;10062;51.052;13.756;2023-05-07T02:33:56;18.43;;;11.53;;
19804;SDS011;10062;51.052;13.756;2023-05-07T02:36:28;19.27;;;12.10;;
19804;SDS011;10062;51.052;13.756;2023-05-07T02:39:10;20.53;;;12.30;;
19804;SDS011;10062;51.052;13.756;2023-05-07T02:41:42;19.57;;;11.43;;
19804;SDS011;10062;51.052;13.756;2023-05-07T02:44:13;18.40;;;11.53;;
19804;SDS011;10062;51.052;13.756;2023-05-07T02:46:45;17.43;;;11.33;;
19804;SDS011;10062;51.052;13.756;2023-05-07T02:49:17;18.10;;;12.43;;
19804;SDS011;10062;51.052;13.756;2023-05-07T02:51:49;19.00;;;11.67;;
19804;SDS011;10062;51.052;13.756;2023-05-07T02:54:26;21.97;;;11.90;;
19804;SDS011;10062;51.052;13.756;2023-05-07T02:56:58;18.10;;;11.73;;
19804;SDS011;10062;51.052;13.756;2023-05-07T02:59:31;19.23;;;12.13;;
19804;SDS011;10062;51.052;13.756;2023-05-07T03:02:03;16.87;;;10.80;;
19804;SDS011;10062;51.052;13.756;2023-05-07T03:04:35;17.17;;;11.43;;
19804;SDS011;10062;51.052;13.756;2023-05-07T03:07:07;13.10;;;9.20;;
19804;SDS011;10062;51.052;13.756;2023-05-07T03:09:40;15.77;;;9.77;;
19804;SDS011;10062;51.052;13.756;2023-05-07T03:12:11;15.53;;;8.63;;
19804;SDS011;10062;51.052;13.756;2023-05-07T03:14:43;13.17;;;8.33;;
19804;SDS011;10062;51.052;13.756;2023-05-07T03:17:15;15.17;;;8.63;;
19804;SDS011;10062;51.052;13.756;2023-05-07T03:19:46;14.13;;;8.23;;
19804;SDS011;10062;51.052;13.756;2023-05-07T03:22:18;17.47;;;9.07;;
19804;SDS011;10062;51.052;13.756;2023-05-07T03:24:51;14.60;;;8.80;;
19804;SDS011;10062;51.052;13.756;2023-05-07T03:27:23;14.70;;;8.90;;
19804;SDS011;10062;51.052;13.756;2023-05-07T03:29:57;15.03;;;8.97;;
19804;SDS011;10062;51.052;13.756;2023-05-07T03:32:28;14.77;;;9.37;;
19804;SDS011;10062;51.052;13.756;2023-05-07T03:35:00;17.17;;;10.17;;
19804;SDS011;10062;51.052;13.756;2023-05-07T03:37:32;15.50;;;9.67;;
19804;SDS011;10062;51.052;13.756;2023-05-07T03:40:06;15.97;;;9.50;;
19804;SDS011;10062;51.052;13.756;2023-05-07T03:42:46;17.37;;;9.90;;
19804;SDS011;10062;51.052;13.756;2023-05-07T03:45:19;20.20;;;11.03;;
19804;SDS011;10062;51.052;13.756;2023-05-07T03:48:00;18.27;;;10.73;;
19804;SDS011;10062;51.052;13.756;2023-05-07T03:50:32;16.20;;;10.53;;
19804;SDS011;10062;51.052;13.756;2023-05-07T03:53:04;18.60;;;10.37;;
19804;SDS011;10062;51.052;13.756;2023-05-07T03:55:42;18.93;;;11.17;;
19804;SDS011;10062;51.052;13.756;2023-05-07T03:58:14;19.67;;;10.50;;
19804;SDS011;10062;51.052;13.756;2023-05-07T04:00:46;19.53;;;11.30;;
19804;SDS011;10062;51.052;13.756;2023-05-07T04:03:26;21.27;;;10.90;;
19804;SDS011;10062;51.052;13.756;2023-05-07T04:06:01;18.20;;;11.30;;
19804;SDS011;10062;51.052;13.756;2023-05-07T04:08:34;22.93;;;12.40;;
19804;SDS011;10062;51.052;13.756;2023-05-07T04:11:09;20.80;;;10.87;;
19804;SDS011;10062;51.052;13.756;2023-05-07T04:13:41;19.63;;;13.30;;
19804;SDS011;10062;51.052;13.756;2023-05-07T04:16:13;20.67;;;10.47;;
19804;SDS011;10062;51.052;13.756;2023-05-07T04:18:45;18.30;;;11.43;;
19804;SDS011;10062;51.052;13.756;2023-05-07T04:21:17;20.70;;;10.80;;
19804;SDS011;10062;51.052;13.756;2023-05-07T04:23:51;20.03;;;10.20;;
19804;SDS011;10062;51.052;13.756;2023-05-07T04:26:24;19.87;;;10.47;;
19804;SDS011;10062;51.052;13.756;2023-05-07T04:28:56;18.43;;;9.17;;
19804;SDS011;10062;51.052;13.756;2023-05-07T04:31:33;20.47;;;10.30;;
19804;SDS011;10062;51.052;13.756;2023-05-07T04:34:05;20.90;;;11.00;;
19804;SDS011;10062;51.052;13.756;2023-05-07T04:36:37;16.63;;;9.50;;
19804;SDS011;10062;51.052;13.756;2023-05-07T04:39:16;17.23;;;11.13;;
19804;SDS011;10062;51.052;13.756;2023-05-07T04:41:52;17.00;;;10.33;;
19804;SDS011;10062;51.052;13.756;2023-05-07T04:44:24;16.07;;;9.23;;
19804;SDS011;10062;51.052;13.756;2023-05-07T04:46:56;19.00;;;10.73;;
19804;SDS011;10062;51.052;13.756;2023-05-07T04:49:28;18.23;;;10.70;;
19804;SDS011;10062;51.052;13.756;2023-05-07T04:52:01;19.17;;;11.07;;
19804;SDS011;10062;51.052;13.756;2023-05-07T04:54:33;20.40;;;11.00;;
19804;SDS011;10062;51.052;13.756;2023-05-07T04:57:07;18.90;;;11.13;;
19804;SDS011;10062;51.052;13.756;2023-05-07T04:59:39;21.17;;;11.17;;
19804;SDS011;10062;51.052;13.756;2023-05-07T05:02:10;19.60;;;11.60;;
19804;SDS011;10062;51.052;13.756;2023-05-07T05:04:43;22.10;;;12.17;;
19804;SDS011;10062;51.052;13.756;2023-05-07T05:07:15;19.40;;;10.33;;
19804;SDS011;10062;51.052;13.756;2023-05-07T05:09:47;17.30;;;10.80;;
19804;SDS011;10062;51.052;13.756;2023-05-07T05:12:20;18.10;;;10.73;;
19804;SDS011;10062;51.052;13.756;2023-05-07T05:14:53;20.33;;;10.17;;
19804;SDS011;10062;51.052;13.756;2023-05-07T05:17:25;17.33;;;9.87;;
19804;SDS011;10062;51.052;13.756;2023-05-07T05:19:57;17.87;;;10.90;;
19804;SDS011;10062;51.052;13.756;2023-05-07T05:22:29;17.43;;;9.73;;
19804;SDS011;10062;51.052;13.756;2023-05-07T05:25:03;21.70;;;11.37;;
19804;SDS011;10062;51.052;13.756;2023-05-07T05:27:37;17.37;;;10.57;;
19804;SDS011;10062;51.052;13.756;2023-05-07T05:30:10;19.33;;;10.10;;
19804;SDS011;10062;51.052;13.756;2023-05-07T05:32:43;21.50;;;11.33;;
19804;SDS011;10062;51.052;13.756;2023-05-07T05:35:15;18.63;;;10.77;;
19804;SDS011;10062;51.052;13.756;2023-05-07T05:37:47;19.37;;;10.97;;
19804;SDS011;10062;51.052;13.756;2023-05-07T05:40:20;20.37;;;9.57;;
19804;SDS011;10062;51.052;13.756;2023-05-07T05:42:53;24.53;;;13.87;;
19804;SDS011;10062;51.052;13.756;2023-05-07T05:45:25;20.07;;;11.93;;
19804;SDS011;10062;51.052;13.756;2023-05-07T05:47:57;19.23;;;11.60;;
19804;SDS011;10062;51.052;13.756;2023-05-07T05:50:29;20.77;;;12.27;;
19804;SDS011;10062;51.052;13.756;2023-05-07T05:53:00;17.13;;;11.30;;
19804;SDS011;10062;51.052;13.756;2023-05-07T05:55:33;18.80;;;11.70;;
19804;SDS011;10062;51.052;13.756;2023-05-07T05:58:06;21.33;;;11.53;;
19804;SDS011;10062;51.052;13.756;2023-05-07T06:00:42;16.50;;;10.13;;
19804;SDS011;10062;51.052;13.756;2023-05-07T06:03:14;16.80;;;9.00;;
19804;SDS011;10062;51.052;13.756;2023-05-07T06:05:46;13.93;;;8.03;;
19804;SDS011;10062;51.052;13.756;2023-05-07T06:08:18;14.60;;;8.10;;
19804;SDS011;10062;51.052;13.756;2023-05-07T06:10:50;15.00;;;8.17;;
19804;SDS011;10062;51.052;13.756;2023-05-07T06:13:24;15.73;;;8.57;;
19804;SDS011;10062;51.052;13.756;2023-05-07T06:15:55;15.63;;;6.97;;
19804;SDS011;10062;51.052;13.756;2023-05-07T06:18:27;12.17;;;6.73;;
19804;SDS011;10062;51.052;13.756;2023-05-07T06:20:59;12.57;;;7.63;;
19804;SDS011;10062;51.052;13.756;2023-05-07T06:23:34;12.90;;;6.90;;
19804;SDS011;10062;51.052;13.756;2023-05-07T06:26:06;12.47;;;7.43;;
19804;SDS011;10062;51.052;13.756;2023-05-07T06:28:44;10.60;;;6.23;;
19804;SDS011;10062;51.052;13.756;2023-05-07T06:31:18;12.47;;;6.20;;
19804;SDS011;10062;51.052;13.756;2023-05-07T06:33:57;10.23;;;5.70;;
19804;SDS011;10062;51.052;13.756;2023-05-07T06:36:36;9.00;;;5.00;;
19804;SDS011;10062;51.052;13.756;2023-05-07T06:39:20;9.03;;;5.37;;
19804;SDS011;10062;51.052;13.756;2023-05-07T06:41:51;11.67;;;6.23;;
19804;SDS011;10062;51.052;13.756;2023-05-07T06:44:32;11.33;;;5.83;;
19804;SDS011;10062;51.052;13.756;2023-05-07T06:47:15;14.20;;;7.70;;
19804;SDS011;10062;51.052;13.756;2023-05-07T06:49:50;11.27;;;7.43;;
19804;SDS011;10062;51.052;13.756;2023-05-07T06:52:24;11.63;;;7.43;;
19804;SDS011;10062;51.052;13.756;2023-05-07T06:54:57;10.80;;;6.83;;
19804;SDS011;10062;51.052;13.756;2023-05-07T06:57:30;10.80;;;6.63;;
19804;SDS011;10062;51.052;13.756;2023-05-07T07:00:03;11.20;;;7.47;;
19804;SDS011;10062;51.052;13.756;2023-05-07T07:02:40;11.20;;;6.70;;
19804;SDS011;10062;51.052;13.756;2023-05-07T07:05:14;13.83;;;7.70;;
19804;SDS011;10062;51.052;13.756;2023-05-07T07:07:46;15.23;;;9.50;;
19804;SDS011;10062;51.052;13.756;2023-05-07T07:10:22;12.20;;;7.77;;
19804;SDS011;10062;51.052;13.756;2023-05-07T07:12:55;14.63;;;7.57;;
19804;SDS011;10062;51.052;13.756;2023-05-07T07:15:29;11.87;;;7.63;;
19804;SDS011;10062;51.052;13.756;2023-05-07T07:18:01;12.07;;;7.20;;
19804;SDS011;10062;51.052;13.756;2023-05-07T07:20:33;11.60;;;7.13;;
19804;SDS011;10062;51.052;13.756;2023-05-07T07:23:05;10.97;;;6.67;;
19804;SDS011;10062;51.052;13.756;2023-05-07T07:25:36;9.50;;;5.83;;
19804;SDS011;10062;51.052;13.756;2023-05-07T07:28:09;7.60;;;5.33;;
19804;SDS011;10062;51.052;13.756;2023-05-07T07:30:43;7.17;;;4.87;;
19804;SDS011;10062;51.052;13.756;2023-05-07T07:33:15;7.53;;;5.10;;
19804;SDS011;10062;51.052;13.756;2023-05-07T07:35:47;7.80;;;5.20;;
19804;SDS011;10062;51.052;13.756;2023-05-07T07:38:19;8.70;;;4.83;;
19804;SDS011;10062;51.052;13.756;2023-05-07T07:40:51;6.93;;;4.30;;
19804;SDS011;10062;51.052;13.756;2023-05-07T07:43:23;8.23;;;4.57;;
19804;SDS011;10062;51.052;13.756;2023-05-07T07:45:56;6.80;;;4.40;;
19804;SDS011;10062;51.052;13.756;2023-05-07T07:48:28;7.63;;;4.97;;
19804;SDS011;10062;51.052;13.756;2023-05-07T07:51:00;7.40;;;3.90;;
19804;SDS011;10062;51.052;13.756;2023-05-07T07:53:33;6.43;;;4.47;;
19804;SDS011;10062;51.052;13.756;2023-05-07T07:56:05;7.87;;;4.33;;
19804;SDS011;10062;51.052;13.756;2023-05-07T07:58:38;7.27;;;4.10;;
19804;SDS011;10062;51.052;13.756;2023-05-07T08:01:11;8.33;;;4.63;;
19804;SDS011;10062;51.052;13.756;2023-05-07T08:03:44;8.07;;;4.83;;
19804;SDS011;10062;51.052;13.756;2023-05-07T08:06:17;6.47;;;4.40;;
19804;SDS011;10062;51.052;13.756;2023-05-07T08:08:49;8.47;;;4.37;;
19804;SDS011;10062;51.052;13.756;2023-05-07T08:11:21;7.80;;;4.70;;
19804;SDS011;10062;51.052;13.756;2023-05-07T08:13:53;6.77;;;4.07;;
19804;SDS011;10062;51.052;13.756;2023-05-07T08:16:27;6.07;;;4.17;;
19804;SDS011;10062;51.052;13.756;2023-05-07T08:18:58;5.83;;;3.93;;
19804;SDS011;10062;51.052;13.756;2023-05-07T08:21:30;5.57;;;3.93;;
19804;SDS011;10062;51.052;13.756;2023-05-07T08:24:03;5.93;;;3.50;;
19804;SDS011;10062;51.052;13.756;2023-05-07T08:26:35;6.40;;;3.93;;
19804;SDS011;10062;51.052;13.756;2023-05-07T08:29:09;5.87;;;3.77;;
19804;SDS011;10062;51.052;13.756;2023-05-07T08:31:42;5.63;;;3.73;;
19804;SDS011;10062;51.052;13.756;2023-05-07T08:34:14;5.97;;;3.77;;
19804;SDS011;10062;51.052;13.756;2023-05-07T08:36:48;6.57;;;4.20;;
19804;SDS011;10062;51.052;13.756;2023-05-07T08:39:24;6.90;;;3.80;;
19804;SDS011;10062;51.052;13.756;2023-05-07T08:41:58;5.00;;;3.60;;
19804;SDS011;10062;51.052;13.756;2023-05-07T08:44:36;7.20;;;4.20;;
19804;SDS011;10062;51.052;13.756;2023-05-07T08:47:12;6.23;;;3.87;;
19804;SDS011;10062;51.052;13.756;2023-05-07T08:49:45;6.00;;;3.80;;
19804;SDS011;10062;51.052;13.756;2023-05-07T08:52:18;6.07;;;4.00;;
19804;SDS011;10062;51.052;13.756;2023-05-07T08:54:50;7.43;;;4.77;;
19804;SDS011;10062;51.052;13.756;2023-05-07T08:57:23;6.77;;;4.27;;
19804;SDS011;10062;51.052;13.756;2023-05-07T08:59:55;8.40;;;5.63;;
19804;SDS011;10062;51.052;13.756;2023-05-07T09:02:28;8.00;;;5.40;;
19804;SDS011;10062;51.052;13.756;2023-05-07T09:05:00;9.13;;;6.03;;
19804;SDS011;10062;51.052;13.756;2023-05-07T09:07:32;11.50;;;6.90;;
19804;SDS011;10062;51.052;13.756;2023-05-07T09:10:05;9.97;;;6.37;;
19804;SDS011;10062;51.052;13.756;2023-05-07T09:12:40;12.70;;;7.13;;
19804;SDS011;10062;51.052;13.756;2023-05-07T09:15:13;8.93;;;6.10;;
19804;SDS011;10062;51.052;13.756;2023-05-07T09:17:47;10.07;;;6.30;;
19804;SDS011;10062;51.052;13.756;2023-05-07T09:20:19;13.07;;;6.23;;
19804;SDS011;10062;51.052;13.756;2023-05-07T09:22:51;12.57;;;7.57;;
19804;SDS011;10062;51.052;13.756;2023-05-07T09:25:28;9.37;;;6.43;;
19804;SDS011;10062;51.052;13.756;2023-05-07T09:28:02;10.93;;;6.73;;
19804;SDS011;10062;51.052;13.756;2023-05-07T09:30:35;10.77;;;6.57;;
19804;SDS011;10062;51.052;13.756;2023-05-07T09:33:11;10.30;;;6.97;;
19804;SDS011;10062;51.052;13.756;2023-05-07T09:35:46;10.10;;;6.60;;
19804;SDS011;10062;51.052;13.756;2023-05-07T09:38:22;9.70;;;6.03;;
19804;SDS011;10062;51.052;13.756;2023-05-07T09:41:03;10.67;;;6.53;;
19804;SDS011;10062;51.052;13.756;2023-05-07T09:43:38;9.77;;;6.10;;
19804;SDS011;10062;51.052;13.756;2023-05-07T09:46:13;8.93;;;5.73;;
19804;SDS011;10062;51.052;13.756;2023-05-07T09:48:53;10.30;;;6.23;;
19804;SDS011;10062;51.052;13.756;2023-05-07T09:51:29;10.83;;;5.40;;
19804;SDS011;10062;51.052;13.756;2023-05-07T09:54:05;21.83;;;12.43;;
19804;SDS011;10062;51.052;13.756;2023-05-07T09:56:40;13.83;;;8.97;;
19804;SDS011;10062;51.052;13.756;2023-05-07T09:59:15;8.70;;;6.50;;
19804;SDS011;10062;51.052;13.756;2023-05-07T10:01:49;10.90;;;6.87;;
19804;SDS011;10062;51.052;13.756;2023-05-07T10:04:24;13.27;;;8.07;;
19804;SDS011;10062;51.052;13.756;2023-05-07T10:06:57;25.03;;;13.90;;
19804;SDS011;10062;51.052;13.756;2023-05-07T10:09:31;10.43;;;7.43;;
19804;SDS011;10062;51.052;13.756;2023-05-07T10:12:04;10.17;;;6.83;;
19804;SDS011;10062;51.052;13.756;2023-05-07T10:14:37;10.63;;;6.93;;
19804;SDS011;10062;51.052;13.756;2023-05-07T10:17:09;11.47;;;6.70;;
19804;SDS011;10062;51.052;13.756;2023-05-07T10:19:46;10.20;;;6.93;;
19804;SDS011;10062;51.052;13.756;2023-05-07T10:22:19;11.60;;;6.90;;
19804;SDS011;10062;51.052;13.756;2023-05-07T10:24:53;8.73;;;5.93;;
19804;SDS011;10062;51.052;13.756;2023-05-07T10:27:26;11.70;;;6.83;;
19804;SDS011;10062;51.052;13.756;2023-05-07T10:30:02;10.70;;;7.37;;
19804;SDS011;10062;51.052;13.756;2023-05-07T10:32:42;11.63;;;7.13;;
19804;SDS011;10062;51.052;13.756;2023-05-07T10:35:27;10.67;;;6.77;;
19804;SDS011;10062;51.052;13.756;2023-05-07T10:38:03;9.87;;;6.60;;
19804;SDS011;10062;51.052;13.756;2023-05-07T10:40:38;10.07;;;6.63;;
19804;SDS011;10062;51.052;13.756;2023-05-07T10:43:11;13.27;;;9.43;;
19804;SDS011;10062;51.052;13.756;2023-05-07T10:46:10;8.20;;;6.43;;
19804;SDS011;10062;51.052;13.756;2023-05-07T10:51:47;11.13;;;6.23;;
19804;SDS011;10062;51.052;13.756;2023-05-07T10:58:13;13.30;;;9.27;;
19804;SDS011;10062;51.052;13.756;2023-05-07T11:00:58;9.40;;;6.30;;
19804;SDS011;10062;51.052;13.756;2023-05-07T11:09:58;8.33;;;5.57;;
19804;SDS011;10062;51.052;13.756;2023-05-07T11:12:50;8.50;;;5.93;;
19804;SDS011;10062;51.052;13.756;2023-05-07T11:15:45;8.43;;;5.40;;
19804;SDS011;10062;51.052;13.756;2023-05-07T11:18:25;8.07;;;5.73;;
19804;SDS011;10062;51.052;13.756;2023-05-07T11:21:31;11.27;;;5.67;;
19804;SDS011;10062;51.052;13.756;2023-05-07T11:24:15;8.43;;;5.67;;
19804;SDS011;10062;51.052;13.756;2023-05-07T11:26:58;7.53;;;5.07;;
19804;SDS011;10062;51.052;13.756;2023-05-07T11:29:31;7.77;;;6.27;;
19804;SDS011;10062;51.052;13.756;2023-05-07T11:32:08;8.63;;;5.30;;
19804;SDS011;10062;51.052;13.756;2023-05-07T11:34:47;9.70;;;6.73;;
19804;SDS011;10062;51.052;13.756;2023-05-07T11:37:22;7.97;;;5.83;;
19804;SDS011;10062;51.052;13.756;2023-05-07T11:40:03;7.93;;;5.40;;
19804;SDS011;10062;51.052;13.756;2023-05-07T11:42:38;10.03;;;6.90;;
19804;SDS011;10062;51.052;13.756;2023-05-07T11:45:11;7.93;;;5.40;;
19804;SDS011;10062;51.052;13.756;2023-05-07T11:47:42;10.07;;;6.93;;
19804;SDS011;10062;51.052;13.756;2023-05-07T11:50:15;8.10;;;5.37;;
19804;SDS011;10062;51.052;13.756;2023-05-07T11:52:50;7.80;;;5.70;;
19804;SDS011;10062;51.052;13.756;2023-05-07T11:55:23;8.87;;;5.60;;
19804;SDS011;10062;51.052;13.756;2023-05-07T11:57:57;8.77;;;5.23;;
19804;SDS011;10062;51.052;13.756;2023-05-07T12:00:29;8.30;;;5.47;;
19804;SDS011;10062;51.052;13.756;2023-05-07T12:03:02;9.73;;;5.80;;
19804;SDS011;10062;51.052;13.756;2023-05-07T12:05:35;7.37;;;5.37;;
19804;SDS011;10062;51.052;13.756;2023-05-07T12:08:07;8.43;;;5.93;;
19804;SDS011;10062;51.052;13.756;2023-05-07T12:10:40;8.50;;;5.30;;
19804;SDS011;10062;51.052;13.756;2023-05-07T12:13:16;7.33;;;5.47;;
19804;SDS011;10062;51.052;13.756;2023-05-07T12:15:50;11.77;;;5.17;;
19804;SDS011;10062;51.052;13.756;2023-05-07T12:18:22;7.47;;;5.20;;
19804;SDS011;10062;51.052;13.756;2023-05-07T12:20:54;9.07;;;5.17;;
19804;SDS011;10062;51.052;13.756;2023-05-07T12:23:26;7.67;;;5.40;;
19804;SDS011;10062;51.052;13.756;2023-05-07T12:25:59;9.97;;;6.00;;
19804;SDS011;10062;51.052;13.756;2023-05-07T12:28:37;10.33;;;5.87;;
19804;SDS011;10062;51.052;13.756;2023-05-07T12:31:09;7.53;;;4.80;;
19804;SDS011;10062;51.052;13.756;2023-05-07T12:33:41;7.93;;;4.77;;
19804;SDS011;10062;51.052;13.756;2023-05-07T12:36:13;8.30;;;5.13;;
19804;SDS011;10062;51.052;13.756;2023-05-07T12:38:45;10.57;;;5.13;;
19804;SDS011;10062;51.052;13.756;2023-05-07T12:41:20;6.77;;;4.90;;
19804;SDS011;10062;51.052;13.756;2023-05-07T12:43:57;6.90;;;5.10;;
19804;SDS011;10062;51.052;13.756;2023-05-07T12:46:28;8.60;;;4.53;;
19804;SDS011;10062;51.052;13.756;2023-05-07T12:49:01;8.40;;;4.83;;
19804;SDS011;10062;51.052;13.756;2023-05-07T12:51:34;7.23;;;5.23;;
19804;SDS011;10062;51.052;13.756;2023-05-07T12:54:06;7.17;;;5.20;;
19804;SDS011;10062;51.052;13.756;2023-05-07T12:56:39;8.70;;;4.93;;
19804;SDS011;10062;51.052;13.756;2023-05-07T12:59:12;6.70;;;4.73;;
19804;SDS011;10062;51.052;13.756;2023-05-07T13:01:45;7.37;;;5.17;;
19804;SDS011;10062;51.052;13.756;2023-05-07T13:04:17;8.50;;;6.00;;
19804;SDS011;10062;51.052;13.756;2023-05-07T13:06:48;7.40;;;6.00;;
19804;SDS011;10062;51.052;13.756;2023-05-07T13:09:20;5.80;;;4.40;;
19804;SDS011;10062;51.052;13.756;2023-05-07T13:11:52;7.37;;;5.00;;
19804;SDS011;10062;51.052;13.756;2023-05-07T13:14:25;9.20;;;4.63;;
19804;SDS011;10062;51.052;13.756;2023-05-07T13:16:56;6.73;;;4.60;;
19804;SDS011;10062;51.052;13.756;2023-05-07T13:19:28;6.80;;;4.50;;
19804;SDS011;10062;51.052;13.756;2023-05-07T13:21:59;7.97;;;4.67;;
19804;SDS011;10062;51.052;13.756;2023-05-07T13:24:31;7.10;;;5.00;;
19804;SDS011;10062;51.052;13.756;2023-05-07T13:27:03;7.27;;;4.33;;
19804;SDS011;10062;51.052;13.756;2023-05-07T13:29:36;7.93;;;4.80;;
19804;SDS011;10062;51.052;13.756;2023-05-07T13:32:07;7.13;;;5.00;;
19804;SDS011;10062;51.052;13.756;2023-05-07T13:34:39;7.30;;;3.87;;
19804;SDS011;10062;51.052;13.756;2023-05-07T13:37:11;6.70;;;4.30;;
19804;SDS011;10062;51.052;13.756;2023-05-07T13:39:43;6.07;;;4.17;;
19804;SDS011;10062;51.052;13.756;2023-05-07T13:42:15;8.50;;;4.23;;
19804;SDS011;10062;51.052;13.756;2023-05-07T13:44:49;7.17;;;4.53;;
19804;SDS011;10062;51.052;13.756;2023-05-07T13:47:20;7.17;;;4.10;;
19804;SDS011;10062;51.052;13.756;2023-05-07T13:49:52;6.40;;;4.60;;
19804;SDS011;10062;51.052;13.756;2023-05-07T13:52:24;9.27;;;4.63;;
19804;SDS011;10062;51.052;13.756;2023-05-07T13:54:55;9.07;;;5.20;;
19804;SDS011;10062;51.052;13.756;2023-05-07T13:57:28;6.77;;;4.47;;
19804;SDS011;10062;51.052;13.756;2023-05-07T14:00:01;5.80;;;4.20;;
19804;SDS011;10062;51.052;13.756;2023-05-07T14:02:45;6.47;;;4.80;;
19804;SDS011;10062;51.052;13.756;2023-05-07T14:05:16;6.83;;;4.20;;
19804;SDS011;10062;51.052;13.756;2023-05-07T14:07:50;5.60;;;3.93;;
19804;SDS011;10062;51.052;13.756;2023-05-07T14:10:22;5.77;;;4.07;;
19804;SDS011;10062;51.052;13.756;2023-05-07T14:12:53;7.60;;;3.60;;
19804;SDS011;10062;51.052;13.756;2023-05-07T14:15:26;5.87;;;4.00;;
19804;SDS011;10062;51.052;13.756;2023-05-07T14:17:58;5.50;;;3.10;;
19804;SDS011;10062;51.052;13.756;2023-05-07T14:20:32;4.77;;;3.37;;
19804;SDS011;10062;51.052;13.756;2023-05-07T14:23:06;5.70;;;3.60;;
19804;SDS011;10062;51.052;13.756;2023-05-07T14:25:38;4.90;;;3.30;;
19804;SDS011;10062;51.052;13.756;2023-05-07T14:28:10;7.20;;;2.93;;
19804;SDS011;10062;51.052;13.756;2023-05-07T14:30:42;5.43;;;3.90;;
19804;SDS011;10062;51.052;13.756;2023-05-07T14:33:14;5.63;;;3.37;;
19804;SDS011;10062;51.052;13.756;2023-05-07T14:35:46;5.20;;;3.00;;
19804;SDS011;10062;51.052;13.756;2023-05-07T14:38:19;4.77;;;3.10;;
19804;SDS011;10062;51.052;13.756;2023-05-07T14:40:51;6.73;;;3.27;;
19804;SDS011;10062;51.052;13.756;2023-05-07T14:43:25;4.43;;;2.87;;
19804;SDS011;10062;51.052;13.756;2023-05-07T14:45:58;4.60;;;3.00;;
19804;SDS011;10062;51.052;13.756;2023-05-07T14:48:30;4.93;;;3.30;;
19804;SDS011;10062;51.052;13.756;2023-05-07T14:51:02;5.23;;;3.03;;
19804;SDS011;10062;51.052;13.756;2023-05-07T14:53:34;6.00;;;3.67;;
19804;SDS011;10062;51.052;13.756;2023-05-07T14:56:05;5.23;;;3.47;;
19804;SDS011;10062;51.052;13.756;2023-05-07T14:58:37;5.80;;;4.17;;
19804;SDS011;10062;51.052;13.756;2023-05-07T15:01:10;5.63;;;3.70;;
19804;SDS011;10062;51.052;13.756;2023-05-07T15:03:42;7.23;;;3.53;;
19804;SDS011;10062;51.052;13.756;2023-05-07T15:06:13;7.20;;;4.33;;
19804;SDS011;10062;51.052;13.756;2023-05-07T15:08:45;5.97;;;4.20;;
19804;SDS011;10062;51.052;13.756;2023-05-07T15:11:18;7.17;;;3.60;;
19804;SDS011;10062;51.052;13.756;2023-05-07T15:13:50;7.47;;;3.67;;